createdAt,value
2022-12-08T00:01:21.681Z,6.90
2022-12-08T00:04:18.584Z,7.22
2022-12-08T00:07:33.875Z,8.13
2022-12-08T00:13:47.481Z,7.20
2022-12-08T00:16:44.561Z,6.63
2022-12-08T00:19:42.668Z,4.82
2022-12-08T00:22:39.494Z,6.72
2022-12-08T00:25:37.185Z,5.25
2022-12-08T00:28:34.911Z,5.10
2022-12-08T00:31:31.815Z,6.15
2022-12-08T00:34:28.801Z,5.35
2022-12-08T00:37:25.610Z,6.00
2022-12-08T00:40:22.492Z,6.85
2022-12-08T00:43:19.318Z,5.07
2022-12-08T00:46:16.214Z,4.53
2022-12-08T00:49:13.579Z,5.15
2022-12-08T00:52:10.493Z,4.72
2022-12-08T00:55:07.941Z,5.05
2022-12-08T00:58:04.795Z,4.93
2022-12-08T01:01:01.675Z,4.70
2022-12-08T01:04:02.174Z,4.80
2022-12-08T01:06:59.035Z,5.50
2022-12-08T01:09:57.691Z,4.55
2022-12-08T01:12:54.527Z,5.15
2022-12-08T01:15:51.349Z,4.82
2022-12-08T01:18:48.378Z,5.47
2022-12-08T01:21:46.472Z,4.85
2022-12-08T01:24:43.328Z,6.20
2022-12-08T01:27:40.143Z,5.90
2022-12-08T01:30:40.015Z,5.13
2022-12-08T01:33:36.865Z,5.60
2022-12-08T01:36:38.467Z,4.97
2022-12-08T01:39:35.701Z,4.70
2022-12-08T01:42:34.454Z,4.90
2022-12-08T01:45:32.666Z,4.43
2022-12-08T01:48:29.501Z,5.90
2022-12-08T01:51:27.249Z,6.00
2022-12-08T01:54:29.444Z,4.78
2022-12-08T01:57:37.572Z,4.97
2022-12-08T02:00:34.397Z,5.47
2022-12-08T02:03:39.413Z,5.47
2022-12-08T02:06:41.681Z,5.90
2022-12-08T02:09:40.112Z,5.85
2022-12-08T02:12:36.951Z,5.45
2022-12-08T02:15:43.078Z,5.00
2022-12-08T02:19:29.154Z,5.43
2022-12-08T02:23:01.816Z,5.65
2022-12-08T02:27:03.622Z,5.18
2022-12-08T02:30:22.382Z,5.18
2022-12-08T02:33:40.225Z,5.57
2022-12-08T02:36:50.653Z,5.03
2022-12-08T02:40:14.839Z,6.30
2022-12-08T02:43:43.299Z,5.93
2022-12-08T02:47:03.562Z,7.25
2022-12-08T02:50:00.848Z,7.85
2022-12-08T02:52:57.867Z,6.05
2022-12-08T02:56:15.688Z,6.80
2022-12-08T02:59:24.552Z,6.72
2022-12-08T03:02:58.889Z,6.65
2022-12-08T03:06:35.516Z,6.68
2022-12-08T03:09:59.031Z,5.53
2022-12-08T03:13:40.000Z,6.65
2022-12-08T03:16:40.277Z,5.68
2022-12-08T03:19:41.846Z,6.53
2022-12-08T03:22:40.746Z,5.43
2022-12-08T03:25:53.290Z,6.28
2022-12-08T03:28:50.435Z,7.18
2022-12-08T03:32:01.294Z,6.78
2022-12-08T03:35:04.190Z,6.82
2022-12-08T03:38:19.744Z,7.57
2022-12-08T03:41:19.521Z,7.95
2022-12-08T03:44:16.428Z,6.53
2022-12-08T03:47:13.343Z,6.43
2022-12-08T03:50:11.538Z,6.28
2022-12-08T03:53:08.425Z,6.63
2022-12-08T03:56:15.566Z,7.38
2022-12-08T03:59:12.409Z,6.07
2022-12-08T04:02:09.286Z,6.15
2022-12-08T04:05:06.838Z,4.38
2022-12-08T04:08:03.824Z,6.25
2022-12-08T04:11:00.786Z,6.95
2022-12-08T04:13:57.678Z,6.65
2022-12-08T04:16:54.486Z,7.40
2022-12-08T04:19:51.338Z,6.43
2022-12-08T04:22:48.188Z,7.75
2022-12-08T04:25:45.510Z,7.25
2022-12-08T04:28:42.729Z,7.32
2022-12-08T04:31:39.633Z,7.03
2022-12-08T04:34:36.536Z,6.80
2022-12-08T04:37:33.367Z,5.70
2022-12-08T04:40:30.233Z,6.07
2022-12-08T04:43:27.131Z,7.63
2022-12-08T04:46:23.980Z,9.20
2022-12-08T04:49:20.941Z,7.95
2022-12-08T04:52:17.736Z,7.53
2022-12-08T04:55:14.701Z,7.32
2022-12-08T04:58:18.299Z,8.85
2022-12-08T05:01:15.300Z,7.85
2022-12-08T05:04:12.232Z,7.80
2022-12-08T05:07:09.220Z,9.38
2022-12-08T05:10:07.361Z,7.10
2022-12-08T05:13:04.450Z,6.93
2022-12-08T05:16:19.438Z,8.65
2022-12-08T05:19:16.738Z,6.20
2022-12-08T05:22:13.693Z,8.55
2022-12-08T05:25:10.960Z,8.85
2022-12-08T05:28:39.504Z,9.05
2022-12-08T05:31:24.913Z,9.25
2022-12-08T05:34:21.983Z,7.47
2022-12-08T05:37:19.051Z,8.55
2022-12-08T05:40:16.033Z,7.68
2022-12-08T05:43:12.931Z,8.30
2022-12-08T05:46:10.134Z,8.00
2022-12-08T05:49:07.164Z,9.07
2022-12-08T05:52:04.159Z,6.22
2022-12-08T05:55:01.048Z,8.20
2022-12-08T05:57:58.610Z,8.20
2022-12-08T06:00:57.957Z,7.60
2022-12-08T06:03:57.042Z,8.75
2022-12-08T06:06:53.942Z,9.48
2022-12-08T06:09:50.782Z,8.05
2022-12-08T06:12:47.612Z,10.07
2022-12-08T06:15:44.503Z,8.73
2022-12-08T06:18:49.788Z,9.40
2022-12-08T06:21:46.835Z,8.80
2022-12-08T06:24:43.681Z,9.57
2022-12-08T06:27:40.558Z,9.07
2022-12-08T06:30:37.984Z,9.93
2022-12-08T06:33:35.115Z,8.52
2022-12-08T06:36:32.654Z,7.15
2022-12-08T06:39:29.571Z,10.10
2022-12-08T06:42:45.066Z,7.40
2022-12-08T06:45:42.075Z,11.10
2022-12-08T06:48:39.193Z,5.47
2022-12-08T06:51:35.989Z,9.35
2022-12-08T06:54:32.850Z,9.18
2022-12-08T06:57:29.705Z,13.93
2022-12-08T07:00:26.789Z,12.55
2022-12-08T07:03:23.826Z,10.23
2022-12-08T07:06:24.520Z,8.60
2022-12-08T07:12:18.373Z,10.45
2022-12-08T07:15:15.305Z,11.32
2022-12-08T07:18:12.313Z,14.15
2022-12-08T07:21:13.089Z,11.05
2022-12-08T07:24:10.066Z,11.27
2022-12-08T07:27:06.995Z,14.35
2022-12-08T07:30:04.706Z,10.38
2022-12-08T07:33:05.703Z,11.07
2022-12-08T07:39:01.933Z,11.23
2022-12-08T07:41:59.282Z,10.10
2022-12-08T07:44:56.176Z,11.98
2022-12-08T07:47:53.014Z,10.15
2022-12-08T07:50:49.863Z,5.78
2022-12-08T07:53:53.794Z,10.60
2022-12-08T07:56:51.602Z,9.63
2022-12-08T07:59:48.466Z,8.80
2022-12-08T08:02:45.559Z,9.90
2022-12-08T08:05:44.084Z,10.68
2022-12-08T08:08:40.929Z,8.07
2022-12-08T08:11:37.800Z,9.32
2022-12-08T08:14:34.739Z,10.52
2022-12-08T08:17:32.926Z,8.65
2022-12-08T08:20:29.891Z,8.75
2022-12-08T08:23:27.563Z,8.05
2022-12-08T08:26:24.414Z,9.07
2022-12-08T08:29:22.060Z,8.02
2022-12-08T08:32:19.355Z,10.30
2022-12-08T08:35:16.581Z,9.82
2022-12-08T08:38:13.954Z,10.25
2022-12-08T08:41:11.168Z,8.98
2022-12-08T08:44:08.092Z,9.32
2022-12-08T08:47:04.996Z,9.32
2022-12-08T08:50:02.345Z,7.60
2022-12-08T08:53:01.589Z,8.20
2022-12-08T08:55:58.537Z,6.55
2022-12-08T08:58:55.667Z,9.60
2022-12-08T09:01:53.380Z,9.85
2022-12-08T09:04:51.463Z,9.48
2022-12-08T09:07:48.524Z,8.90
2022-12-08T09:10:45.632Z,9.63
2022-12-08T09:13:42.704Z,8.63
2022-12-08T09:16:42.330Z,8.35
2022-12-08T09:19:39.561Z,7.32
2022-12-08T09:22:36.373Z,7.47
2022-12-08T09:25:33.327Z,7.57
2022-12-08T09:28:30.886Z,6.63
2022-12-08T09:31:27.935Z,7.35
2022-12-08T09:34:24.913Z,8.15
2022-12-08T09:37:21.850Z,8.77
2022-12-08T09:40:22.898Z,7.28
2022-12-08T09:43:59.595Z,7.70
2022-12-08T09:46:58.471Z,7.90
2022-12-08T09:50:30.430Z,7.22
2022-12-08T09:53:35.694Z,7.15
2022-12-08T09:56:36.954Z,8.02
2022-12-08T09:59:35.431Z,11.23
2022-12-08T10:02:32.579Z,6.35
2022-12-08T10:05:36.767Z,7.65
2022-12-08T10:08:59.774Z,9.50
2022-12-08T10:12:10.365Z,10.65
2022-12-08T10:15:28.920Z,9.00
2022-12-08T10:18:30.803Z,5.82
2022-12-08T10:21:30.392Z,7.07
2022-12-08T10:24:41.224Z,15.57
2022-12-08T10:27:38.154Z,6.63
2022-12-08T10:30:34.999Z,8.82
2022-12-08T10:33:33.404Z,6.68
2022-12-08T10:36:57.804Z,7.05
2022-12-08T10:40:17.820Z,14.95
2022-12-08T10:43:22.104Z,7.18
2022-12-08T10:46:22.642Z,8.45
2022-12-08T10:49:32.259Z,10.00
2022-12-08T10:52:29.295Z,6.35
2022-12-08T10:55:27.639Z,6.68
2022-12-08T10:58:42.631Z,9.88
2022-12-08T11:01:41.191Z,8.25
2022-12-08T11:04:38.473Z,11.20
2022-12-08T11:07:35.330Z,13.45
2022-12-08T11:10:43.495Z,9.93
2022-12-08T11:13:42.179Z,13.40
2022-12-08T11:16:43.026Z,11.40
2022-12-08T11:19:43.747Z,8.18
2022-12-08T11:25:42.606Z,6.57
2022-12-08T11:28:39.997Z,6.97
2022-12-08T11:32:00.813Z,7.00
2022-12-08T11:35:10.115Z,7.03
2022-12-08T11:38:22.283Z,9.52
2022-12-08T11:41:24.228Z,10.00
2022-12-08T11:44:40.638Z,6.90
2022-12-08T11:47:55.784Z,7.03
2022-12-08T11:51:12.874Z,6.50
2022-12-08T11:54:34.690Z,6.28
2022-12-08T11:57:31.685Z,7.03
2022-12-08T12:00:28.764Z,6.90
2022-12-08T12:03:40.496Z,7.72
2022-12-08T12:06:54.776Z,7.60
2022-12-08T12:10:38.948Z,6.32
2022-12-08T12:14:16.639Z,6.43
2022-12-08T12:17:41.556Z,7.50
2022-12-08T12:21:06.113Z,7.45
2022-12-08T12:24:36.454Z,6.60
2022-12-08T12:27:41.383Z,7.60
2022-12-08T12:30:56.646Z,7.63
2022-12-08T12:34:05.943Z,7.63
2022-12-08T12:37:14.532Z,6.50
2022-12-08T12:40:26.576Z,7.20
2022-12-08T12:43:37.300Z,7.03
2022-12-08T12:49:40.939Z,9.00
2022-12-08T12:52:39.681Z,8.05
2022-12-08T12:55:57.376Z,7.22
2022-12-08T12:58:54.333Z,7.00
2022-12-08T13:02:02.483Z,7.50
2022-12-08T13:05:02.484Z,6.10
2022-12-08T13:08:07.946Z,8.30
2022-12-08T13:11:10.783Z,7.57
2022-12-08T13:14:33.221Z,6.95
2022-12-08T13:17:35.207Z,9.50
2022-12-08T13:21:01.971Z,7.05
2022-12-08T13:24:13.604Z,6.93
2022-12-08T13:27:13.715Z,7.72
2022-12-08T13:30:52.540Z,7.68
2022-12-08T13:33:49.642Z,7.30
2022-12-08T13:37:02.237Z,8.70
2022-12-08T13:40:13.194Z,8.57
2022-12-08T13:43:55.558Z,9.70
2022-12-08T13:57:33.078Z,7.38
2022-12-08T14:00:30.281Z,5.85
2022-12-08T14:03:27.286Z,6.80
2022-12-08T14:06:49.640Z,6.47
2022-12-08T14:09:46.927Z,8.00
2022-12-08T14:12:51.959Z,8.32
2022-12-08T14:15:49.124Z,7.43
2022-12-08T14:18:46.224Z,7.28
2022-12-08T14:22:06.171Z,7.85
2022-12-08T14:25:05.888Z,9.53
2022-12-08T14:28:04.615Z,9.07
2022-12-08T14:31:03.534Z,7.20
2022-12-08T14:34:00.414Z,7.70
2022-12-08T14:36:57.916Z,9.82
2022-12-08T14:40:01.968Z,12.95
2022-12-08T14:43:10.223Z,17.15
2022-12-08T14:46:33.542Z,15.57
2022-12-08T14:49:36.026Z,15.60
2022-12-08T14:52:33.150Z,14.68
2022-12-08T14:55:36.875Z,28.30
2022-12-08T14:58:33.726Z,28.73
2022-12-08T15:01:31.388Z,12.60
2022-12-08T15:04:29.061Z,9.07
2022-12-08T15:07:37.925Z,9.27
2022-12-08T15:10:38.010Z,8.82
2022-12-08T15:13:34.977Z,10.25
2022-12-08T15:16:43.846Z,9.77
2022-12-08T15:19:40.794Z,10.65
2022-12-08T15:22:38.732Z,12.80
2022-12-08T15:25:35.572Z,10.40
2022-12-08T15:28:32.465Z,10.70
2022-12-08T15:31:29.335Z,11.60
2022-12-08T15:34:26.490Z,10.75
2022-12-08T15:37:26.412Z,10.68
2022-12-08T15:40:23.384Z,9.77
2022-12-08T15:43:21.684Z,8.40
2022-12-08T15:46:18.546Z,7.70
2022-12-08T15:49:21.934Z,13.27
2022-12-08T15:52:22.775Z,8.98
2022-12-08T15:55:21.600Z,9.07
2022-12-08T15:58:52.992Z,8.45
2022-12-08T16:01:41.256Z,10.23
2022-12-08T16:07:57.836Z,12.23
2022-12-08T16:12:03.993Z,9.82
2022-12-08T16:17:49.006Z,9.80
2022-12-08T16:24:08.923Z,12.90
2022-12-08T16:28:00.109Z,13.85
2022-12-08T16:30:45.544Z,9.70
2022-12-08T16:33:42.639Z,9.00
2022-12-08T16:36:39.546Z,8.85
2022-12-08T16:39:39.890Z,8.80
2022-12-08T16:42:43.513Z,8.57
2022-12-08T16:45:45.000Z,10.13
2022-12-08T16:48:42.107Z,8.73
2022-12-08T16:51:41.552Z,9.15
2022-12-08T16:54:38.377Z,8.70
2022-12-08T16:57:35.276Z,8.90
2022-12-08T17:00:37.587Z,7.93
2022-12-08T17:03:34.509Z,6.45
2022-12-08T17:06:31.464Z,7.68
2022-12-08T17:09:29.124Z,6.72
2022-12-08T17:12:25.966Z,6.85
2022-12-08T17:15:25.609Z,7.22
2022-12-08T17:18:22.445Z,7.28
2022-12-08T17:21:19.693Z,6.80
2022-12-08T17:24:21.804Z,6.47
2022-12-08T17:27:18.978Z,8.00
2022-12-08T17:30:17.659Z,5.72
2022-12-08T17:33:14.569Z,6.10
2022-12-08T17:36:15.552Z,6.55
2022-12-08T17:39:18.467Z,7.72
2022-12-08T17:42:15.844Z,6.68
2022-12-08T17:45:12.705Z,6.38
2022-12-08T17:48:09.855Z,6.93
2022-12-08T17:51:09.811Z,7.25
2022-12-08T17:54:06.923Z,6.05
2022-12-08T17:57:04.404Z,6.13
2022-12-08T18:00:01.229Z,6.93
2022-12-08T18:02:58.677Z,8.30
2022-12-08T18:05:55.556Z,9.98
2022-12-08T18:08:52.375Z,7.93
2022-12-08T18:11:49.252Z,10.65
2022-12-08T18:14:46.464Z,10.10
2022-12-08T18:17:43.265Z,9.50
2022-12-08T18:20:40.191Z,9.63
2022-12-08T18:23:42.743Z,10.63
2022-12-08T18:26:39.879Z,8.60
2022-12-08T18:29:36.808Z,10.35
2022-12-08T18:32:33.983Z,10.82
2022-12-08T18:35:30.928Z,9.65
2022-12-08T18:38:27.832Z,9.13
2022-12-08T18:41:26.105Z,10.02
2022-12-08T18:44:23.222Z,8.52
2022-12-08T18:47:20.238Z,10.27
2022-12-08T18:50:17.802Z,7.50
2022-12-08T18:53:14.646Z,8.48
2022-12-08T18:56:30.418Z,8.43
2022-12-08T18:59:27.277Z,9.32
2022-12-08T19:02:24.348Z,9.15
2022-12-08T19:05:21.238Z,9.25
2022-12-08T19:08:18.281Z,8.70
2022-12-08T19:11:24.660Z,7.53
2022-12-08T19:14:27.733Z,10.75
2022-12-08T19:17:25.949Z,10.40
2022-12-08T19:20:22.887Z,11.10
2022-12-08T19:23:19.762Z,10.02
2022-12-08T19:26:16.632Z,9.85
2022-12-08T19:29:13.893Z,9.93
2022-12-08T19:32:10.729Z,11.60
2022-12-08T19:35:08.106Z,9.88
2022-12-08T19:38:05.275Z,12.02
2022-12-08T19:41:28.145Z,11.65
2022-12-08T19:44:34.414Z,11.85
2022-12-08T19:47:31.327Z,10.48
2022-12-08T19:50:37.584Z,11.63
2022-12-08T19:53:34.446Z,9.90
2022-12-08T19:56:32.412Z,11.35
2022-12-08T19:59:30.304Z,9.82
2022-12-08T20:02:27.383Z,11.13
2022-12-08T20:05:24.766Z,9.43
2022-12-08T20:08:21.702Z,9.65
2022-12-08T20:11:18.610Z,11.00
2022-12-08T20:14:15.535Z,9.07
2022-12-08T20:17:12.362Z,11.05
2022-12-08T20:20:10.656Z,11.75
2022-12-08T20:23:08.182Z,11.20
2022-12-08T20:26:07.961Z,8.07
2022-12-08T20:29:04.833Z,8.27
2022-12-08T20:32:01.745Z,9.07
2022-12-08T20:34:58.781Z,10.10
2022-12-08T20:37:55.599Z,9.30
2022-12-08T20:40:52.452Z,9.50
2022-12-08T20:43:49.732Z,11.25
2022-12-08T20:46:49.546Z,12.35
2022-12-08T20:49:47.771Z,9.90
2022-12-08T20:52:44.829Z,11.82
2022-12-08T20:55:42.747Z,12.82
2022-12-08T20:58:41.206Z,12.75
2022-12-08T21:01:38.483Z,12.75
2022-12-08T21:04:35.643Z,13.32
2022-12-08T21:07:33.692Z,12.05
2022-12-08T21:10:30.632Z,11.05
2022-12-08T21:13:27.961Z,10.80
2022-12-08T21:16:24.876Z,11.57
2022-12-08T21:19:23.038Z,10.85
2022-12-08T21:22:21.129Z,10.57
2022-12-08T21:25:18.174Z,8.60
2022-12-08T21:28:15.484Z,10.18
2022-12-08T21:31:19.060Z,9.13
2022-12-08T21:34:16.198Z,8.07
2022-12-08T21:37:13.302Z,8.65
2022-12-08T21:40:11.695Z,8.95
2022-12-08T21:43:09.052Z,9.38
2022-12-08T21:46:06.236Z,8.70
2022-12-08T21:49:04.459Z,7.28
2022-12-08T21:52:01.344Z,7.20
2022-12-08T21:54:58.323Z,8.85
2022-12-08T21:57:56.928Z,8.07
2022-12-08T22:00:54.212Z,7.90
2022-12-08T22:03:51.463Z,7.43
2022-12-08T22:06:49.083Z,8.13
2022-12-08T22:09:46.423Z,8.68
2022-12-08T22:12:43.915Z,8.38
2022-12-08T22:15:40.960Z,7.63
2022-12-08T22:18:38.245Z,8.13
2022-12-08T22:21:35.588Z,7.60
2022-12-08T22:24:32.876Z,7.88
2022-12-08T22:27:30.112Z,8.40
2022-12-08T22:30:27.106Z,8.65
2022-12-08T22:33:24.815Z,9.90
2022-12-08T22:36:28.067Z,8.55
2022-12-08T22:39:25.189Z,8.13
2022-12-08T22:42:22.162Z,8.15
2022-12-08T22:45:19.197Z,7.55
2022-12-08T22:48:16.879Z,7.20
2022-12-08T22:51:14.822Z,8.35
2022-12-08T22:54:12.826Z,8.68
2022-12-08T22:57:10.282Z,7.90
2022-12-08T23:00:11.502Z,7.72
2022-12-08T23:03:08.949Z,7.35
2022-12-08T23:06:13.036Z,11.27
2022-12-08T23:09:10.183Z,8.20
2022-12-08T23:12:07.731Z,7.78
2022-12-08T23:15:05.600Z,7.78
2022-12-08T23:18:02.793Z,8.75
2022-12-08T23:21:13.441Z,8.35
2022-12-08T23:24:10.434Z,8.32
2022-12-08T23:27:07.340Z,8.65
2022-12-08T23:30:08.344Z,8.18
2022-12-08T23:33:05.630Z,8.25
2022-12-08T23:36:02.756Z,8.05
2022-12-08T23:38:59.757Z,7.88
2022-12-08T23:41:56.833Z,8.70
2022-12-08T23:44:54.016Z,8.30
2022-12-08T23:47:50.996Z,8.23
2022-12-08T23:50:48.412Z,7.90
2022-12-08T23:53:45.585Z,8.77
2022-12-08T23:56:42.753Z,9.93
2022-12-08T23:59:39.650Z,8.85
